sensor_id;sensor_type;location;lat;lon;timestamp;P1;durP1;ratioP1;P2;durP2;ratioP2
29452;SDS011;16424;50.956;5.320;2023-04-15T00:00:41;7.63;;;3.47;;
29452;SDS011;16424;50.956;5.320;2023-04-15T00:03:07;6.45;;;4.07;;
29452;SDS011;16424;50.956;5.320;2023-04-15T00:05:33;10.13;;;4.15;;
29452;SDS011;16424;50.956;5.320;2023-04-15T00:07:59;7.63;;;3.42;;
29452;SDS011;16424;50.956;5.320;2023-04-15T00:10:25;8.23;;;3.67;;
29452;SDS011;16424;50.956;5.320;2023-04-15T00:12:51;6.95;;;3.67;;
29452;SDS011;16424;50.956;5.320;2023-04-15T00:15:17;8.50;;;3.92;;
29452;SDS011;16424;50.956;5.320;2023-04-15T00:17:44;6.18;;;2.90;;
29452;SDS011;16424;50.956;5.320;2023-04-15T00:20:10;6.03;;;3.50;;
29452;SDS011;16424;50.956;5.320;2023-04-15T00:22:36;11.15;;;3.83;;
29452;SDS011;16424;50.956;5.320;2023-04-15T00:25:01;12.48;;;4.18;;
29452;SDS011;16424;50.956;5.320;2023-04-15T00:27:27;5.47;;;3.72;;
29452;SDS011;16424;50.956;5.320;2023-04-15T00:29:53;4.93;;;3.67;;
29452;SDS011;16424;50.956;5.320;2023-04-15T00:32:20;9.38;;;3.60;;
29452;SDS011;16424;50.956;5.320;2023-04-15T00:34:45;9.57;;;4.30;;
29452;SDS011;16424;50.956;5.320;2023-04-15T00:37:11;6.82;;;3.80;;
29452;SDS011;16424;50.956;5.320;2023-04-15T00:39:37;7.47;;;3.55;;
29452;SDS011;16424;50.956;5.320;2023-04-15T00:42:04;9.32;;;4.10;;
29452;SDS011;16424;50.956;5.320;2023-04-15T00:44:30;9.10;;;3.83;;
29452;SDS011;16424;50.956;5.320;2023-04-15T00:46:56;8.60;;;3.90;;
29452;SDS011;16424;50.956;5.320;2023-04-15T00:49:24;6.18;;;3.58;;
29452;SDS011;16424;50.956;5.320;2023-04-15T00:51:51;6.03;;;3.75;;
29452;SDS011;16424;50.956;5.320;2023-04-15T00:54:16;9.00;;;3.15;;
29452;SDS011;16424;50.956;5.320;2023-04-15T00:56:42;5.50;;;3.45;;
29452;SDS011;16424;50.956;5.320;2023-04-15T00:59:08;7.85;;;3.30;;
29452;SDS011;16424;50.956;5.320;2023-04-15T01:01:34;5.60;;;3.20;;
29452;SDS011;16424;50.956;5.320;2023-04-15T01:04:01;6.10;;;3.10;;
29452;SDS011;16424;50.956;5.320;2023-04-15T01:06:27;9.45;;;3.42;;
29452;SDS011;16424;50.956;5.320;2023-04-15T01:08:53;7.75;;;3.80;;
29452;SDS011;16424;50.956;5.320;2023-04-15T01:11:19;7.15;;;3.33;;
29452;SDS011;16424;50.956;5.320;2023-04-15T01:13:46;5.25;;;3.22;;
29452;SDS011;16424;50.956;5.320;2023-04-15T01:16:12;6.97;;;3.72;;
29452;SDS011;16424;50.956;5.320;2023-04-15T01:18:38;8.65;;;3.03;;
29452;SDS011;16424;50.956;5.320;2023-04-15T01:21:04;6.60;;;2.83;;
29452;SDS011;16424;50.956;5.320;2023-04-15T01:23:31;6.50;;;3.35;;
29452;SDS011;16424;50.956;5.320;2023-04-15T01:26:00;6.65;;;3.00;;
29452;SDS011;16424;50.956;5.320;2023-04-15T01:28:27;8.38;;;3.05;;
29452;SDS011;16424;50.956;5.320;2023-04-15T01:31:09;7.20;;;3.10;;
29452;SDS011;16424;50.956;5.320;2023-04-15T01:33:36;5.80;;;3.00;;
29452;SDS011;16424;50.956;5.320;2023-04-15T01:36:03;5.88;;;3.15;;
29452;SDS011;16424;50.956;5.320;2023-04-15T01:38:30;10.98;;;4.05;;
29452;SDS011;16424;50.956;5.320;2023-04-15T01:40:57;9.55;;;3.25;;
29452;SDS011;16424;50.956;5.320;2023-04-15T01:43:23;7.03;;;3.60;;
29452;SDS011;16424;50.956;5.320;2023-04-15T01:45:49;6.85;;;3.00;;
29452;SDS011;16424;50.956;5.320;2023-04-15T01:48:15;7.65;;;3.35;;
29452;SDS011;16424;50.956;5.320;2023-04-15T01:50:41;4.22;;;2.70;;
29452;SDS011;16424;50.956;5.320;2023-04-15T01:53:07;6.55;;;3.05;;
29452;SDS011;16424;50.956;5.320;2023-04-15T01:55:33;6.55;;;2.90;;
29452;SDS011;16424;50.956;5.320;2023-04-15T01:57:59;8.32;;;2.58;;
29452;SDS011;16424;50.956;5.320;2023-04-15T02:00:25;5.45;;;2.60;;
29452;SDS011;16424;50.956;5.320;2023-04-15T02:02:51;3.65;;;2.55;;
29452;SDS011;16424;50.956;5.320;2023-04-15T02:05:17;6.60;;;2.80;;
29452;SDS011;16424;50.956;5.320;2023-04-15T02:07:42;6.78;;;3.13;;
29452;SDS011;16424;50.956;5.320;2023-04-15T02:10:09;5.40;;;2.40;;
29452;SDS011;16424;50.956;5.320;2023-04-15T02:12:37;6.40;;;2.60;;
29452;SDS011;16424;50.956;5.320;2023-04-15T02:15:03;6.72;;;3.15;;
29452;SDS011;16424;50.956;5.320;2023-04-15T02:17:29;7.43;;;2.45;;
29452;SDS011;16424;50.956;5.320;2023-04-15T02:19:55;5.57;;;2.40;;
29452;SDS011;16424;50.956;5.320;2023-04-15T02:22:21;8.48;;;3.20;;
29452;SDS011;16424;50.956;5.320;2023-04-15T02:24:46;3.67;;;2.55;;
29452;SDS011;16424;50.956;5.320;2023-04-15T02:27:15;5.75;;;2.13;;
29452;SDS011;16424;50.956;5.320;2023-04-15T02:29:44;4.82;;;2.30;;
29452;SDS011;16424;50.956;5.320;2023-04-15T02:32:10;4.88;;;2.88;;
29452;SDS011;16424;50.956;5.320;2023-04-15T02:34:37;8.18;;;2.58;;
29452;SDS011;16424;50.956;5.320;2023-04-15T02:37:05;6.10;;;2.90;;
29452;SDS011;16424;50.956;5.320;2023-04-15T02:39:31;6.50;;;2.38;;
29452;SDS011;16424;50.956;5.320;2023-04-15T02:41:57;4.75;;;2.22;;
29452;SDS011;16424;50.956;5.320;2023-04-15T02:44:24;7.45;;;2.65;;
29452;SDS011;16424;50.956;5.320;2023-04-15T02:46:51;4.47;;;2.67;;
29452;SDS011;16424;50.956;5.320;2023-04-15T02:49:19;7.75;;;2.70;;
29452;SDS011;16424;50.956;5.320;2023-04-15T02:51:45;5.15;;;2.65;;
29452;SDS011;16424;50.956;5.320;2023-04-15T02:54:13;5.88;;;2.25;;
29452;SDS011;16424;50.956;5.320;2023-04-15T02:56:40;5.22;;;2.83;;
29452;SDS011;16424;50.956;5.320;2023-04-15T02:59:05;7.38;;;3.35;;
29452;SDS011;16424;50.956;5.320;2023-04-15T03:01:31;8.10;;;2.85;;
29452;SDS011;16424;50.956;5.320;2023-04-15T03:03:56;6.75;;;2.70;;
29452;SDS011;16424;50.956;5.320;2023-04-15T03:06:22;4.40;;;2.35;;
29452;SDS011;16424;50.956;5.320;2023-04-15T03:08:48;4.80;;;2.92;;
29452;SDS011;16424;50.956;5.320;2023-04-15T03:11:14;5.03;;;2.38;;
29452;SDS011;16424;50.956;5.320;2023-04-15T03:13:41;8.52;;;2.53;;
29452;SDS011;16424;50.956;5.320;2023-04-15T03:16:07;6.20;;;2.50;;
29452;SDS011;16424;50.956;5.320;2023-04-15T03:18:33;5.72;;;2.47;;
29452;SDS011;16424;50.956;5.320;2023-04-15T03:20:59;7.10;;;2.38;;
29452;SDS011;16424;50.956;5.320;2023-04-15T03:23:25;5.75;;;2.40;;
29452;SDS011;16424;50.956;5.320;2023-04-15T03:25:51;5.43;;;2.72;;
29452;SDS011;16424;50.956;5.320;2023-04-15T03:28:19;4.60;;;2.53;;
29452;SDS011;16424;50.956;5.320;2023-04-15T03:30:45;12.77;;;2.90;;
29452;SDS011;16424;50.956;5.320;2023-04-15T03:33:11;5.97;;;3.05;;
29452;SDS011;16424;50.956;5.320;2023-04-15T03:35:36;4.57;;;2.83;;
29452;SDS011;16424;50.956;5.320;2023-04-15T03:38:02;8.50;;;3.28;;
29452;SDS011;16424;50.956;5.320;2023-04-15T03:40:28;8.70;;;2.97;;
29452;SDS011;16424;50.956;5.320;2023-04-15T03:42:53;8.18;;;2.55;;
29452;SDS011;16424;50.956;5.320;2023-04-15T03:45:19;9.05;;;2.97;;
29452;SDS011;16424;50.956;5.320;2023-04-15T03:47:45;7.15;;;3.00;;
29452;SDS011;16424;50.956;5.320;2023-04-15T03:50:11;8.57;;;2.67;;
29452;SDS011;16424;50.956;5.320;2023-04-15T03:52:36;4.82;;;2.70;;
29452;SDS011;16424;50.956;5.320;2023-04-15T03:55:02;4.18;;;2.38;;
29452;SDS011;16424;50.956;5.320;2023-04-15T03:57:28;5.97;;;2.65;;
29452;SDS011;16424;50.956;5.320;2023-04-15T03:59:53;4.38;;;2.42;;
29452;SDS011;16424;50.956;5.320;2023-04-15T04:02:19;9.45;;;3.35;;
29452;SDS011;16424;50.956;5.320;2023-04-15T04:04:45;6.78;;;2.67;;
29452;SDS011;16424;50.956;5.320;2023-04-15T04:07:14;10.75;;;3.13;;
29452;SDS011;16424;50.956;5.320;2023-04-15T04:09:40;8.13;;;2.67;;
29452;SDS011;16424;50.956;5.320;2023-04-15T04:12:06;4.47;;;2.78;;
29452;SDS011;16424;50.956;5.320;2023-04-15T04:14:32;6.10;;;2.85;;
29452;SDS011;16424;50.956;5.320;2023-04-15T04:16:58;6.13;;;2.63;;
29452;SDS011;16424;50.956;5.320;2023-04-15T04:19:24;3.67;;;2.30;;
29452;SDS011;16424;50.956;5.320;2023-04-15T04:21:50;8.85;;;3.10;;
29452;SDS011;16424;50.956;5.320;2023-04-15T04:24:16;6.90;;;2.90;;
29452;SDS011;16424;50.956;5.320;2023-04-15T04:26:41;6.03;;;2.35;;
29452;SDS011;16424;50.956;5.320;2023-04-15T04:29:07;4.70;;;2.63;;
29452;SDS011;16424;50.956;5.320;2023-04-15T04:31:33;3.47;;;2.17;;
29452;SDS011;16424;50.956;5.320;2023-04-15T04:33:58;3.03;;;1.80;;
29452;SDS011;16424;50.956;5.320;2023-04-15T04:36:24;6.20;;;2.92;;
29452;SDS011;16424;50.956;5.320;2023-04-15T04:38:50;5.50;;;2.45;;
29452;SDS011;16424;50.956;5.320;2023-04-15T04:41:16;3.38;;;2.40;;
29452;SDS011;16424;50.956;5.320;2023-04-15T04:43:42;6.18;;;2.45;;
29452;SDS011;16424;50.956;5.320;2023-04-15T04:46:07;9.75;;;3.13;;
29452;SDS011;16424;50.956;5.320;2023-04-15T04:48:34;5.25;;;2.92;;
29452;SDS011;16424;50.956;5.320;2023-04-15T04:51:00;5.45;;;2.97;;
29452;SDS011;16424;50.956;5.320;2023-04-15T04:53:26;7.35;;;2.60;;
29452;SDS011;16424;50.956;5.320;2023-04-15T04:55:52;4.78;;;2.55;;
29452;SDS011;16424;50.956;5.320;2023-04-15T04:58:17;5.00;;;2.38;;
29452;SDS011;16424;50.956;5.320;2023-04-15T05:00:43;6.85;;;2.30;;
29452;SDS011;16424;50.956;5.320;2023-04-15T05:03:09;5.10;;;2.75;;
29452;SDS011;16424;50.956;5.320;2023-04-15T05:05:34;8.75;;;2.53;;
29452;SDS011;16424;50.956;5.320;2023-04-15T05:08:03;4.07;;;2.58;;
29452;SDS011;16424;50.956;5.320;2023-04-15T05:10:29;10.48;;;3.22;;
29452;SDS011;16424;50.956;5.320;2023-04-15T05:12:55;5.80;;;2.65;;
29452;SDS011;16424;50.956;5.320;2023-04-15T05:15:21;6.93;;;2.58;;
29452;SDS011;16424;50.956;5.320;2023-04-15T05:17:47;10.88;;;3.38;;
29452;SDS011;16424;50.956;5.320;2023-04-15T05:20:12;9.43;;;3.05;;
29452;SDS011;16424;50.956;5.320;2023-04-15T05:22:38;9.60;;;3.17;;
29452;SDS011;16424;50.956;5.320;2023-04-15T05:25:04;6.45;;;2.88;;
29452;SDS011;16424;50.956;5.320;2023-04-15T05:27:30;4.47;;;2.30;;
29452;SDS011;16424;50.956;5.320;2023-04-15T05:29:55;4.75;;;3.05;;
29452;SDS011;16424;50.956;5.320;2023-04-15T05:32:21;9.77;;;3.17;;
29452;SDS011;16424;50.956;5.320;2023-04-15T05:34:47;8.63;;;3.03;;
29452;SDS011;16424;50.956;5.320;2023-04-15T05:37:12;8.15;;;2.63;;
29452;SDS011;16424;50.956;5.320;2023-04-15T05:39:38;8.07;;;3.20;;
29452;SDS011;16424;50.956;5.320;2023-04-15T05:42:03;11.10;;;3.08;;
29452;SDS011;16424;50.956;5.320;2023-04-15T05:44:30;6.88;;;2.67;;
29452;SDS011;16424;50.956;5.320;2023-04-15T05:46:56;6.60;;;2.90;;
29452;SDS011;16424;50.956;5.320;2023-04-15T05:49:22;6.80;;;2.80;;
29452;SDS011;16424;50.956;5.320;2023-04-15T05:51:48;10.77;;;3.40;;
29452;SDS011;16424;50.956;5.320;2023-04-15T05:54:13;8.23;;;3.65;;
29452;SDS011;16424;50.956;5.320;2023-04-15T05:56:39;10.82;;;4.20;;
29452;SDS011;16424;50.956;5.320;2023-04-15T05:59:05;12.32;;;3.53;;
29452;SDS011;16424;50.956;5.320;2023-04-15T06:01:32;10.50;;;4.20;;
29452;SDS011;16424;50.956;5.320;2023-04-15T06:03:58;8.20;;;3.60;;
29452;SDS011;16424;50.956;5.320;2023-04-15T06:06:24;6.75;;;3.88;;
29452;SDS011;16424;50.956;5.320;2023-04-15T06:08:51;9.88;;;4.15;;
29452;SDS011;16424;50.956;5.320;2023-04-15T06:11:17;13.32;;;4.38;;
29452;SDS011;16424;50.956;5.320;2023-04-15T06:13:46;6.97;;;4.45;;
29452;SDS011;16424;50.956;5.320;2023-04-15T06:16:11;16.67;;;5.15;;
29452;SDS011;16424;50.956;5.320;2023-04-15T06:18:37;9.35;;;4.40;;
29452;SDS011;16424;50.956;5.320;2023-04-15T06:21:03;11.00;;;5.07;;
29452;SDS011;16424;50.956;5.320;2023-04-15T06:23:29;7.63;;;4.07;;
29452;SDS011;16424;50.956;5.320;2023-04-15T06:25:54;12.95;;;4.30;;
29452;SDS011;16424;50.956;5.320;2023-04-15T06:28:20;11.55;;;4.55;;
29452;SDS011;16424;50.956;5.320;2023-04-15T06:30:45;8.43;;;4.03;;
29452;SDS011;16424;50.956;5.320;2023-04-15T06:33:11;10.98;;;4.72;;
29452;SDS011;16424;50.956;5.320;2023-04-15T06:35:37;9.23;;;4.60;;
29452;SDS011;16424;50.956;5.320;2023-04-15T06:38:03;13.30;;;5.25;;
29452;SDS011;16424;50.956;5.320;2023-04-15T06:40:29;8.88;;;4.75;;
29452;SDS011;16424;50.956;5.320;2023-04-15T06:42:55;9.13;;;5.30;;
29452;SDS011;16424;50.956;5.320;2023-04-15T06:45:21;8.73;;;5.18;;
29452;SDS011;16424;50.956;5.320;2023-04-15T06:47:46;10.35;;;5.50;;
29452;SDS011;16424;50.956;5.320;2023-04-15T06:50:12;7.68;;;4.93;;
29452;SDS011;16424;50.956;5.320;2023-04-15T06:52:38;10.98;;;5.03;;
29452;SDS011;16424;50.956;5.320;2023-04-15T06:55:05;9.20;;;5.07;;
29452;SDS011;16424;50.956;5.320;2023-04-15T06:57:31;10.15;;;4.82;;
29452;SDS011;16424;50.956;5.320;2023-04-15T06:59:56;11.10;;;5.72;;
29452;SDS011;16424;50.956;5.320;2023-04-15T07:02:22;8.88;;;4.95;;
29452;SDS011;16424;50.956;5.320;2023-04-15T07:04:48;6.32;;;4.15;;
29452;SDS011;16424;50.956;5.320;2023-04-15T07:07:13;8.00;;;3.90;;
29452;SDS011;16424;50.956;5.320;2023-04-15T07:09:39;7.78;;;3.65;;
29452;SDS011;16424;50.956;5.320;2023-04-15T07:12:05;9.00;;;4.03;;
29452;SDS011;16424;50.956;5.320;2023-04-15T07:14:31;8.60;;;4.28;;
29452;SDS011;16424;50.956;5.320;2023-04-15T07:16:56;10.27;;;5.05;;
29452;SDS011;16424;50.956;5.320;2023-04-15T07:19:22;5.05;;;3.80;;
29452;SDS011;16424;50.956;5.320;2023-04-15T07:21:48;10.38;;;4.20;;
29452;SDS011;16424;50.956;5.320;2023-04-15T07:24:13;5.88;;;3.08;;
29452;SDS011;16424;50.956;5.320;2023-04-15T07:26:44;7.55;;;4.25;;
29452;SDS011;16424;50.956;5.320;2023-04-15T07:29:09;8.60;;;3.42;;
29452;SDS011;16424;50.956;5.320;2023-04-15T07:31:35;5.85;;;3.10;;
29452;SDS011;16424;50.956;5.320;2023-04-15T07:34:01;4.50;;;2.67;;
29452;SDS011;16424;50.956;5.320;2023-04-15T07:36:28;7.13;;;3.55;;
29452;SDS011;16424;50.956;5.320;2023-04-15T07:38:54;5.05;;;3.03;;
29452;SDS011;16424;50.956;5.320;2023-04-15T07:41:20;8.00;;;3.65;;
29452;SDS011;16424;50.956;5.320;2023-04-15T07:43:46;6.38;;;3.33;;
29452;SDS011;16424;50.956;5.320;2023-04-15T07:46:13;9.98;;;3.70;;
29452;SDS011;16424;50.956;5.320;2023-04-15T07:48:38;5.53;;;3.40;;
29452;SDS011;16424;50.956;5.320;2023-04-15T07:51:04;7.57;;;4.00;;
29452;SDS011;16424;50.956;5.320;2023-04-15T07:53:30;5.18;;;3.42;;
29452;SDS011;16424;50.956;5.320;2023-04-15T07:55:57;6.82;;;4.10;;
29452;SDS011;16424;50.956;5.320;2023-04-15T07:58:23;9.38;;;4.18;;
29452;SDS011;16424;50.956;5.320;2023-04-15T08:00:49;5.22;;;3.83;;
29452;SDS011;16424;50.956;5.320;2023-04-15T08:03:15;7.32;;;4.35;;
29452;SDS011;16424;50.956;5.320;2023-04-15T08:05:41;8.77;;;4.65;;
29452;SDS011;16424;50.956;5.320;2023-04-15T08:08:06;8.65;;;4.65;;
29452;SDS011;16424;50.956;5.320;2023-04-15T08:10:32;7.95;;;5.22;;
29452;SDS011;16424;50.956;5.320;2023-04-15T08:12:58;10.27;;;5.47;;
29452;SDS011;16424;50.956;5.320;2023-04-15T08:15:25;9.38;;;5.82;;
29452;SDS011;16424;50.956;5.320;2023-04-15T08:17:51;11.82;;;6.07;;
29452;SDS011;16424;50.956;5.320;2023-04-15T08:20:16;10.15;;;5.45;;
29452;SDS011;16424;50.956;5.320;2023-04-15T08:22:42;12.63;;;6.78;;
29452;SDS011;16424;50.956;5.320;2023-04-15T08:25:08;12.55;;;6.72;;
29452;SDS011;16424;50.956;5.320;2023-04-15T08:27:34;15.07;;;6.57;;
29452;SDS011;16424;50.956;5.320;2023-04-15T08:30:00;11.43;;;6.85;;
29452;SDS011;16424;50.956;5.320;2023-04-15T08:32:26;11.88;;;7.38;;
29452;SDS011;16424;50.956;5.320;2023-04-15T08:34:51;13.82;;;6.55;;
29452;SDS011;16424;50.956;5.320;2023-04-15T08:37:17;12.30;;;6.10;;
29452;SDS011;16424;50.956;5.320;2023-04-15T08:39:43;10.88;;;5.80;;
29452;SDS011;16424;50.956;5.320;2023-04-15T08:42:15;8.75;;;5.40;;
29452;SDS011;16424;50.956;5.320;2023-04-15T08:44:43;10.70;;;4.95;;
29452;SDS011;16424;50.956;5.320;2023-04-15T08:47:12;8.88;;;5.13;;
29452;SDS011;16424;50.956;5.320;2023-04-15T08:49:39;7.88;;;5.65;;
29452;SDS011;16424;50.956;5.320;2023-04-15T08:52:07;9.20;;;4.65;;
29452;SDS011;16424;50.956;5.320;2023-04-15T08:54:34;13.05;;;4.53;;
29452;SDS011;16424;50.956;5.320;2023-04-15T08:57:00;6.57;;;4.22;;
29452;SDS011;16424;50.956;5.320;2023-04-15T08:59:29;6.97;;;4.18;;
29452;SDS011;16424;50.956;5.320;2023-04-15T09:01:56;8.85;;;4.78;;
29452;SDS011;16424;50.956;5.320;2023-04-15T09:04:22;8.52;;;4.45;;
29452;SDS011;16424;50.956;5.320;2023-04-15T09:06:48;6.55;;;3.95;;
29452;SDS011;16424;50.956;5.320;2023-04-15T09:09:14;11.70;;;4.97;;
29452;SDS011;16424;50.956;5.320;2023-04-15T09:11:39;5.28;;;4.43;;
29452;SDS011;16424;50.956;5.320;2023-04-15T09:14:06;7.00;;;4.00;;
29452;SDS011;16424;50.956;5.320;2023-04-15T09:16:54;5.20;;;4.28;;
29452;SDS011;16424;50.956;5.320;2023-04-15T09:19:27;7.28;;;3.65;;
29452;SDS011;16424;50.956;5.320;2023-04-15T09:21:54;7.18;;;4.40;;
29452;SDS011;16424;50.956;5.320;2023-04-15T09:24:21;6.55;;;5.22;;
29452;SDS011;16424;50.956;5.320;2023-04-15T09:26:47;8.48;;;4.38;;
29452;SDS011;16424;50.956;5.320;2023-04-15T09:29:23;7.03;;;4.18;;
29452;SDS011;16424;50.956;5.320;2023-04-15T09:31:50;6.20;;;3.70;;
29452;SDS011;16424;50.956;5.320;2023-04-15T09:34:16;10.25;;;4.63;;
29452;SDS011;16424;50.956;5.320;2023-04-15T09:39:11;10.38;;;5.10;;
29452;SDS011;16424;50.956;5.320;2023-04-15T09:41:37;7.38;;;4.32;;
29452;SDS011;16424;50.956;5.320;2023-04-15T09:44:04;12.18;;;4.78;;
29452;SDS011;16424;50.956;5.320;2023-04-15T09:46:39;8.82;;;5.53;;
29452;SDS011;16424;50.956;5.320;2023-04-15T09:49:09;9.68;;;4.72;;
29452;SDS011;16424;50.956;5.320;2023-04-15T09:51:36;6.97;;;4.13;;
29452;SDS011;16424;50.956;5.320;2023-04-15T09:54:02;7.28;;;4.70;;
29452;SDS011;16424;50.956;5.320;2023-04-15T09:56:35;8.25;;;4.40;;
29452;SDS011;16424;50.956;5.320;2023-04-15T09:59:05;6.40;;;3.88;;
29452;SDS011;16424;50.956;5.320;2023-04-15T10:01:34;5.90;;;3.65;;
29452;SDS011;16424;50.956;5.320;2023-04-15T10:04:02;5.75;;;4.00;;
29452;SDS011;16424;50.956;5.320;2023-04-15T10:06:29;9.25;;;4.45;;
29452;SDS011;16424;50.956;5.320;2023-04-15T10:08:58;9.48;;;3.42;;
29452;SDS011;16424;50.956;5.320;2023-04-15T10:11:26;5.10;;;3.13;;
29452;SDS011;16424;50.956;5.320;2023-04-15T10:13:53;10.00;;;3.97;;
29452;SDS011;16424;50.956;5.320;2023-04-15T10:16:21;4.38;;;2.25;;
29452;SDS011;16424;50.956;5.320;2023-04-15T10:18:53;4.03;;;2.13;;
29452;SDS011;16424;50.956;5.320;2023-04-15T10:21:20;6.88;;;2.38;;
29452;SDS011;16424;50.956;5.320;2023-04-15T10:23:47;5.32;;;2.60;;
29452;SDS011;16424;50.956;5.320;2023-04-15T10:26:14;5.18;;;2.65;;
29452;SDS011;16424;50.956;5.320;2023-04-15T10:28:41;4.72;;;2.88;;
29452;SDS011;16424;50.956;5.320;2023-04-15T10:31:11;3.55;;;2.10;;
29452;SDS011;16424;50.956;5.320;2023-04-15T10:33:38;6.75;;;2.45;;
29452;SDS011;16424;50.956;5.320;2023-04-15T10:36:06;4.20;;;2.30;;
29452;SDS011;16424;50.956;5.320;2023-04-15T10:38:43;4.90;;;1.95;;
29452;SDS011;16424;50.956;5.320;2023-04-15T10:41:25;3.63;;;1.42;;
29452;SDS011;16424;50.956;5.320;2023-04-15T10:43:54;3.35;;;1.73;;
29452;SDS011;16424;50.956;5.320;2023-04-15T10:49:11;2.97;;;1.50;;
29452;SDS011;16424;50.956;5.320;2023-04-15T10:51:42;3.13;;;1.88;;
29452;SDS011;16424;50.956;5.320;2023-04-15T10:54:16;4.85;;;1.83;;
29452;SDS011;16424;50.956;5.320;2023-04-15T10:59:32;3.13;;;2.20;;
29452;SDS011;16424;50.956;5.320;2023-04-15T11:02:01;3.35;;;2.08;;
29452;SDS011;16424;50.956;5.320;2023-04-15T11:07:35;3.95;;;2.03;;
29452;SDS011;16424;50.956;5.320;2023-04-15T11:10:01;4.10;;;1.90;;
29452;SDS011;16424;50.956;5.320;2023-04-15T11:12:33;5.05;;;2.22;;
29452;SDS011;16424;50.956;5.320;2023-04-15T11:17:56;7.53;;;2.53;;
29452;SDS011;16424;50.956;5.320;2023-04-15T11:20:22;4.30;;;2.35;;
29452;SDS011;16424;50.956;5.320;2023-04-15T11:22:49;4.68;;;2.58;;
29452;SDS011;16424;50.956;5.320;2023-04-15T11:25:29;5.32;;;2.80;;
29452;SDS011;16424;50.956;5.320;2023-04-15T11:27:57;3.17;;;2.28;;
29452;SDS011;16424;50.956;5.320;2023-04-15T11:30:25;3.28;;;2.20;;
29452;SDS011;16424;50.956;5.320;2023-04-15T11:32:54;5.28;;;2.75;;
29452;SDS011;16424;50.956;5.320;2023-04-15T11:35:22;7.20;;;2.22;;
29452;SDS011;16424;50.956;5.320;2023-04-15T11:37:48;8.82;;;1.85;;
29452;SDS011;16424;50.956;5.320;2023-04-15T11:40:14;15.25;;;5.10;;
29452;SDS011;16424;50.956;5.320;2023-04-15T11:42:42;4.40;;;1.83;;
29452;SDS011;16424;50.956;5.320;2023-04-15T11:45:09;2.80;;;1.70;;
29452;SDS011;16424;50.956;5.320;2023-04-15T11:47:36;2.08;;;1.50;;
29452;SDS011;16424;50.956;5.320;2023-04-15T11:52:59;1.20;;;1.10;;
29452;SDS011;16424;50.956;5.320;2023-04-15T11:55:27;6.18;;;1.88;;
29452;SDS011;16424;50.956;5.320;2023-04-15T12:00:37;1.85;;;1.45;;
29452;SDS011;16424;50.956;5.320;2023-04-15T12:03:23;2.65;;;1.73;;
29452;SDS011;16424;50.956;5.320;2023-04-15T12:06:02;1.75;;;1.02;;
29452;SDS011;16424;50.956;5.320;2023-04-15T12:11:29;1.98;;;1.40;;
29452;SDS011;16424;50.956;5.320;2023-04-15T12:13:57;2.53;;;1.60;;
29452;SDS011;16424;50.956;5.320;2023-04-15T12:16:46;1.30;;;1.20;;
29452;SDS011;16424;50.956;5.320;2023-04-15T12:19:17;1.67;;;1.20;;
29452;SDS011;16424;50.956;5.320;2023-04-15T12:21:52;3.50;;;1.50;;
29452;SDS011;16424;50.956;5.320;2023-04-15T12:24:23;3.45;;;1.52;;
29452;SDS011;16424;50.956;5.320;2023-04-15T12:29:19;1.52;;;1.30;;
29452;SDS011;16424;50.956;5.320;2023-04-15T12:31:49;4.55;;;1.50;;
29452;SDS011;16424;50.956;5.320;2023-04-15T12:34:39;1.35;;;1.17;;
29452;SDS011;16424;50.956;5.320;2023-04-15T12:37:05;3.35;;;1.30;;
29452;SDS011;16424;50.956;5.320;2023-04-15T12:39:35;2.40;;;1.40;;
29452;SDS011;16424;50.956;5.320;2023-04-15T12:42:02;2.05;;;1.13;;
29452;SDS011;16424;50.956;5.320;2023-04-15T12:44:29;2.05;;;1.33;;
29452;SDS011;16424;50.956;5.320;2023-04-15T12:46:55;2.05;;;1.25;;
29452;SDS011;16424;50.956;5.320;2023-04-15T12:49:21;1.40;;;1.20;;
29452;SDS011;16424;50.956;5.320;2023-04-15T12:51:48;1.35;;;1.02;;
29452;SDS011;16424;50.956;5.320;2023-04-15T12:54:15;1.50;;;0.98;;
29452;SDS011;16424;50.956;5.320;2023-04-15T12:56:41;1.80;;;1.30;;
29452;SDS011;16424;50.956;5.320;2023-04-15T12:59:08;7.50;;;2.65;;
29452;SDS011;16424;50.956;5.320;2023-04-15T13:01:33;1.35;;;0.82;;
29452;SDS011;16424;50.956;5.320;2023-04-15T13:04:00;3.10;;;1.33;;
29452;SDS011;16424;50.956;5.320;2023-04-15T13:06:26;1.45;;;1.20;;
29452;SDS011;16424;50.956;5.320;2023-04-15T13:08:53;2.20;;;1.27;;
29452;SDS011;16424;50.956;5.320;2023-04-15T13:11:19;2.58;;;1.23;;
29452;SDS011;16424;50.956;5.320;2023-04-15T13:13:46;2.47;;;1.02;;
29452;SDS011;16424;50.956;5.320;2023-04-15T13:16:12;3.78;;;1.50;;
29452;SDS011;16424;50.956;5.320;2023-04-15T13:18:38;2.17;;;1.05;;
29452;SDS011;16424;50.956;5.320;2023-04-15T13:21:03;1.10;;;1.00;;
29452;SDS011;16424;50.956;5.320;2023-04-15T13:23:31;1.90;;;1.20;;
29452;SDS011;16424;50.956;5.320;2023-04-15T13:25:57;4.78;;;1.50;;
29452;SDS011;16424;50.956;5.320;2023-04-15T13:28:23;2.33;;;1.45;;
29452;SDS011;16424;50.956;5.320;2023-04-15T13:30:49;2.08;;;1.27;;
29452;SDS011;16424;50.956;5.320;2023-04-15T13:33:15;1.88;;;1.20;;
29452;SDS011;16424;50.956;5.320;2023-04-15T13:35:41;2.35;;;1.75;;
29452;SDS011;16424;50.956;5.320;2023-04-15T13:38:07;3.70;;;1.30;;
29452;SDS011;16424;50.956;5.320;2023-04-15T13:40:33;2.17;;;1.10;;
29452;SDS011;16424;50.956;5.320;2023-04-15T13:42:58;2.88;;;0.98;;
29452;SDS011;16424;50.956;5.320;2023-04-15T13:45:24;1.27;;;1.10;;
29452;SDS011;16424;50.956;5.320;2023-04-15T13:47:50;5.47;;;1.15;;
29452;SDS011;16424;50.956;5.320;2023-04-15T13:50:16;1.70;;;1.25;;
29452;SDS011;16424;50.956;5.320;2023-04-15T13:52:42;2.72;;;1.08;;
29452;SDS011;16424;50.956;5.320;2023-04-15T13:55:08;1.58;;;1.20;;
29452;SDS011;16424;50.956;5.320;2023-04-15T13:57:34;2.53;;;1.38;;
29452;SDS011;16424;50.956;5.320;2023-04-15T14:00:00;1.90;;;1.02;;
29452;SDS011;16424;50.956;5.320;2023-04-15T14:02:27;0.98;;;0.93;;
29452;SDS011;16424;50.956;5.320;2023-04-15T14:04:53;2.03;;;1.30;;
29452;SDS011;16424;50.956;5.320;2023-04-15T14:07:18;2.70;;;1.08;;
29452;SDS011;16424;50.956;5.320;2023-04-15T14:09:44;4.20;;;1.23;;
29452;SDS011;16424;50.956;5.320;2023-04-15T14:12:10;1.45;;;1.00;;
29452;SDS011;16424;50.956;5.320;2023-04-15T14:14:36;1.35;;;1.20;;
29452;SDS011;16424;50.956;5.320;2023-04-15T14:17:02;2.00;;;0.90;;
29452;SDS011;16424;50.956;5.320;2023-04-15T14:19:29;1.65;;;0.90;;
29452;SDS011;16424;50.956;5.320;2023-04-15T14:21:55;0.68;;;0.68;;
29452;SDS011;16424;50.956;5.320;2023-04-15T14:24:20;1.35;;;0.90;;
29452;SDS011;16424;50.956;5.320;2023-04-15T14:26:46;2.03;;;1.30;;
29452;SDS011;16424;50.956;5.320;2023-04-15T14:29:12;2.13;;;1.23;;
29452;SDS011;16424;50.956;5.320;2023-04-15T14:31:38;2.17;;;1.13;;
29452;SDS011;16424;50.956;5.320;2023-04-15T14:34:04;1.80;;;1.20;;
29452;SDS011;16424;50.956;5.320;2023-04-15T14:36:30;1.98;;;1.40;;
29452;SDS011;16424;50.956;5.320;2023-04-15T14:38:56;2.17;;;1.27;;
29452;SDS011;16424;50.956;5.320;2023-04-15T14:41:22;4.88;;;1.05;;
29452;SDS011;16424;50.956;5.320;2023-04-15T14:43:47;6.60;;;1.52;;
29452;SDS011;16424;50.956;5.320;2023-04-15T14:46:13;2.55;;;1.20;;
29452;SDS011;16424;50.956;5.320;2023-04-15T14:48:39;2.22;;;1.20;;
29452;SDS011;16424;50.956;5.320;2023-04-15T14:51:05;1.58;;;1.08;;
29452;SDS011;16424;50.956;5.320;2023-04-15T14:53:31;2.05;;;1.30;;
29452;SDS011;16424;50.956;5.320;2023-04-15T14:55:57;2.05;;;1.38;;
29452;SDS011;16424;50.956;5.320;2023-04-15T14:58:22;2.00;;;1.35;;
29452;SDS011;16424;50.956;5.320;2023-04-15T15:00:48;1.92;;;1.10;;
29452;SDS011;16424;50.956;5.320;2023-04-15T15:03:14;1.65;;;1.13;;
29452;SDS011;16424;50.956;5.320;2023-04-15T15:05:40;2.63;;;1.20;;
29452;SDS011;16424;50.956;5.320;2023-04-15T15:08:07;2.15;;;1.10;;